logo
App data

Zombie Shooter

Where is the line between life and death? How far can human science go trying to understand this? Take part in the great battle to rescue humanity and find out what's happening! The human race is in danger again. This time scientists could not cope the imminent threat and became monsters themselves.
Store | Hub | SteamDB | Site
Developer: Sigma Team Inc. Publisher: Sigma Team Inc.
Genre: Action, Indie, RPG
Languages: English, Russian
Tags: Action (46), Zombies (42), Indie (33), RPG (30), Shooter (18), Top-Down (16), Isometric (15), Singleplayer (13), Top-Down Shooter (7), Gore (7), Horror (6)
Category: Single-player
Release date: Dec 29, 2007
Price: $4.99
Old userscore: 84% Owners: 100,000 .. 200,000
Followers: 832
Peak concurrent players yesterday: 3
YouTube stats: 2,820 views and 179 comments for top 50 videos uploaded last week, 5 new videos uploaded yesterday.
Playtime total: 03:54 (average) 01:29 (median)

Steam Spy is still in beta, so expect major bugs.

Owners data:

Access restricted.

This feature is only available to users with special access rights. Sorry.

If you want to proceed, you need to register or log in first and then back Steam Spy on Patreon. Look for Indie or Pro pledge.

Don't forget to use the same email as on Steam Spy!

Audience in 2 weeks:

Access restricted.

This feature is only available to users with special access rights. Sorry.

If you want to proceed, you need to register or log in first and then back Steam Spy on Patreon. Look for Indie or Pro pledge.

Don't forget to use the same email as on Steam Spy!

Peak daily concurrent players:

CCU data courtesy of SteamDB. Used with permission.

Hourly concurrent players:

Daily Twitch stats:

Hourly Twitch stats:

Followers over time

Access restricted.

This feature is only available to users with special access rights. Sorry.

If you want to proceed, you need to register or log in first and then back Steam Spy on Patreon. Look for Indie or Pro pledge.

Don't forget to use the same email as on Steam Spy!

Views for top 50 videos on YouTube for this game:

YouTube's Terms of Service

The views data is based on top 50 videos uploaded last week. Actual number of views might be more than the number shown.

If the game has commonly used word as its name (like "FEAR" or "Volume") its number of Youtube views might be wrong.

Games similar to this one:

# Game Release date
Price
Score rank
(Userscore / Metascore)
Owners
Players
Playtime (Median)
1 STAR WARS: Rebel Assault I + II Oct 16, 1993 $9.99N/A (N/A)100,000 .. 200,0000%00:00 (00:00)
2 One Day : The Sun Disappeared Aug 26, 2016 $3.99N/A (N/A)0 .. 20,0000%00:00 (00:00)
3 Atlas Reactor VR Character Viewer Apr 5, 2016 N/AN/A (N/A)20,000 .. 50,0000%00:00 (00:00)
4 Blight of the Immortals Oct 25, 2016 FreeN/A (N/A)0 .. 20,0000%00:00 (00:00)
5 Watch This! Sep 23, 2016 $3.99N/A (N/A)200,000 .. 500,00020%23:39 (07:53)
6 VRMultigames Jul 25, 2016 N/AN/A (N/A)20,000 .. 50,0000%00:00 (00:00)
7 Grizzly Valley Apr 23, 2016 $4.99N/A (N/A)100,000 .. 200,0000%00:00 (00:00)
8 Acan's Call: Act 1 Aug 11, 2016 FreeN/A (N/A)100,000 .. 200,0000%00:00 (00:00)
9 THE LAST BLADE Aug 31, 2016 $9.99N/A (N/A)20,000 .. 50,0000%00:00 (00:00)
10 Skautfold: Shrouded in Sanity May 27, 2016 $4.99N/A (N/A)20,000 .. 50,0000%00:00 (00:00)
11 SHOCK TROOPERS 2nd Squad Sep 28, 2016 $7.99N/A (N/A)0 .. 20,0000%00:00 (00:00)
12 Virtual Rogue Apr 8, 2016 N/AN/A (N/A)0 .. 20,0000%00:00 (00:00)
13 Versus: Battle of the Gladiator Aug 26, 2016 N/AN/A (N/A)50,000 .. 100,0000%00:00 (00:00)
14 Overload Playable Teaser 3.0 Mar 7, 2016 FreeN/A (N/A)100,000 .. 200,0000%00:00 (00:00)
15 VERSUS SQUAD Oct 26, 2016 $7.99N/A (N/A)50,000 .. 100,0000%00:00 (00:00)
16 The Secret of Pineview Forest Oct 31, 2016 FreeN/A (N/A)20,000 .. 50,0000%00:00 (00:00)
17 Cthulhu Realms Jul 1, 2016 N/AN/A (N/A)50,000 .. 100,0000%00:00 (00:00)
18 Evolution RTS Apr 4, 2014 FreeN/A (N/A)100,000 .. 200,0000%00:00 (00:00)
19 Curse: The Eye of Isis Oct 24, 2003 $2.99N/A (N/A/63%)0 .. 20,00025%00:13 (00:04)
20 UFO: Aftermath Oct 3, 2003 $3.99N/A (N/A)100,000 .. 200,0000%00:00 (00:00)
21 Chernobyl Commando Mar 8, 2013 $9.99N/A (N/A)50,000 .. 100,0000%00:00 (00:00)
22 Realms of the Haunting Dec 31, 1996 $2.99N/A (N/A)200,000 .. 500,0000%00:00 (00:00)
23 Manhunter Jan 29, 2013 $0.49N/A (N/A)100,000 .. 200,0000%00:00 (00:00)
24 Dark Raid Jun 3, 2014 $3.99N/A (N/A)20,000 .. 50,0000%00:00 (00:00)
25 Tex Murphy: Mean Streets Jan 1, 1989 $5.99N/A (N/A)50,000 .. 100,0000%00:00 (00:00)
26 Knight Squad Nov 16, 2015 $14.99N/A (N/A)50,000 .. 100,0000%00:00 (00:00)
27 ALLTYNEX Second Dec 11, 2014 $7.99N/A (N/A)20,000 .. 50,0000%00:00 (00:00)
28 Putt-Putt Saves The Zoo Dec 31, 1995 $6.99N/A (N/A)20,000 .. 50,0000%00:00 (00:00)
29 Battle Academy Aug 4, 2010 $14.99N/A (N/A)20,000 .. 50,0000%00:00 (00:00)
30 Haegemonia: Legions of Iron May 1, 2002 $4.99N/A (N/A)0 .. 20,0000%00:00 (00:00)
31 Chaos Domain May 1, 2014 $9.99N/A (N/A)200,000 .. 500,0000%00:00 (00:00)
32 Iron Storm Oct 25, 2002 $2.99N/A (N/A/69%)50,000 .. 100,0000%00:00 (00:00)
33 El Matador Sep 25, 2006 $3.99N/A (N/A/54%)50,000 .. 100,0000%00:00 (00:00)
34 GALAK-Z Oct 29, 2015 $19.99N/A (N/A/78%)100,000 .. 200,0000%00:00 (00:00)
35 Serious Sam: The Random Encounter Oct 24, 2011 $4.99N/A (N/A/64%)500,000 .. 1,000,0000%00:00 (00:00)
36 Garshasp: Temple of the Dragon Sep 24, 2012 $4.99N/A (N/A)20,000 .. 50,0000%00:00 (00:00)
37 Choplifter HD Jan 11, 2012 N/AN/A (N/A/65%)50,000 .. 100,0000%00:00 (00:00)
38 Data Jammers: FastForward Oct 24, 2011 FreeN/A (N/A)50,000 .. 100,0000%00:00 (00:00)
39 Crusader Kings Complete Feb 14, 2012 $9.99N/A (N/A/73%)100,000 .. 200,0000%00:00 (00:00)
40 Alien Zombie Megadeath Oct 18, 2011 $4.99N/A (N/A)20,000 .. 50,0000%00:00 (00:00)
41 Gratuitous Tank Battles May 17, 2012 $9.99N/A (N/A/69%)50,000 .. 100,0000%00:00 (00:00)
42 Bunch of Heroes Sep 21, 2011 $4.99N/A (N/A)100,000 .. 200,0000%00:00 (00:00)
43 Hydrophobia: Prophecy May 9, 2011 $4.99N/A (N/A/64%)200,000 .. 500,0000%00:00 (00:00)
44 Cossacks II: Napoleonic Wars Apr 26, 2005 $4.99N/A (N/A/73%)50,000 .. 100,0000%00:00 (00:00)
45 Xotic Sep 16, 2011 $9.99N/A (N/A/67%)50,000 .. 100,0000%00:00 (00:00)
46 American Conquest Feb 7, 2003 $4.99N/A (N/A/76%)50,000 .. 100,0000%00:00 (00:00)
47 Capsized Apr 29, 2011 $9.99N/A (N/A/80%)200,000 .. 500,0000%00:00 (00:00)
48 American Conquest: Fight Back Sep 30, 2003 $4.99N/A (N/A/66%)100,000 .. 200,0000%00:00 (00:00)
49 Naval Warfare May 25, 2011 $2.99N/A (N/A/57%)100,000 .. 200,0000%00:00 (00:00)
50 Global Ops: Commando Libya Oct 26, 2011 $4.99N/A (N/A/37%)50,000 .. 100,0000%00:00 (00:00)
51 Garshasp: The Monster Slayer May 9, 2011 $4.99N/A (N/A/49%)50,000 .. 100,0000%00:00 (00:00)
52 Oats Studios - Volume 1 Assets Jun 14, 2017 FreeN/A (N/A)20,000 .. 50,0000%00:00 (00:00)
53 Pixel-Warfare: Pro Sep 20, 2016 $0.99N/A (N/A)50,000 .. 100,0000%00:00 (00:00)
54 The Initial Jul 17, 2017 $4.49N/A (N/A)100,000 .. 200,0000%00:00 (00:00)
55 Death Dojo Nov 8, 2016 FreeN/A (N/A)0 .. 20,0000%00:00 (00:00)
56 What The Heck, Dude? Nov 3, 2016 $0.99N/A (N/A)100,000 .. 200,00020%00:02 (00:01)
57 Fastigium Dec 17, 2016 FreeN/A (N/A)0 .. 20,0000%00:00 (00:00)
58 Deus Ex: Breach Jan 24, 2017 FreeN/A (N/A)50,000 .. 100,0000%00:00 (00:00)
59 Scrap Garden - The Day Before Oct 7, 2016 FreeN/A (N/A)100,000 .. 200,0000%00:00 (00:00)
60 STAR WARS SHADOWS OF THE EMPIRE Sep 17, 1997 $5.99N/A (N/A)200,000 .. 500,0000%00:00 (00:00)
61 THOTH Oct 7, 2016 $4.99N/A (N/A)50,000 .. 100,0000%00:00 (00:00)
62 Master of Magic Chess May 23, 2017 FreeN/A (N/A)0 .. 20,0000%00:00 (00:00)
63 Unbox: Newbie's Adventure Sep 5, 2016 $19.99N/A (N/A/68%)50,000 .. 100,0000%00:00 (00:00)
64 Steam 360 Video Player May 10, 2017 FreeN/A (N/A)100,000 .. 200,0000%00:00 (00:00)
65 Lazerbait Oct 14, 2016 FreeN/A (N/A)50,000 .. 100,0000%00:00 (00:00)
66 War in a Box: Paper Tanks Jul 4, 2014 $4.99N/A (N/A)50,000 .. 100,0000%00:00 (00:00)
67 Daedalus - No Escape Oct 28, 2014 $1.99N/A (N/A)20,000 .. 50,0000%00:00 (00:00)
68 Onikira - Demon Killer Aug 27, 2015 $13.99N/A (N/A)50,000 .. 100,0000%00:00 (00:00)
69 Attractio Jan 18, 2016 $19.99N/A (N/A)20,000 .. 50,0000%00:00 (00:00)
70 OCEAN CITY RACING: Redux Aug 27, 2016 $1.99N/A (N/A)50,000 .. 100,0000%00:00 (00:00)
71 Reprisal Universe Sep 15, 2014 $6.99N/A (N/A)20,000 .. 50,0000%00:00 (00:00)
72 Bird Assassin Feb 8, 2011 $1.99N/A (N/A)100,000 .. 200,0000%00:00 (00:00)
73 Crow Oct 6, 2014 $9.99N/A (N/A)20,000 .. 50,0000%00:00 (00:00)
74 Pixel Hunter Jul 18, 2014 $2.99N/A (N/A)20,000 .. 50,0000%00:00 (00:00)
75 Rush for Glory Jun 16, 2014 $14.99N/A (N/A)20,000 .. 50,0000%00:00 (00:00)
76 Jet Gunner Aug 4, 2014 $0.99N/A (N/A)100,000 .. 200,0000%00:00 (00:00)
77 Toxic Bunny HD Jul 18, 2014 $5.99N/A (N/A)0 .. 20,0000%00:00 (00:00)
78 Obludia Jul 18, 2014 $1.01N/A (N/A)20,000 .. 50,0000%00:00 (00:00)
79 Frontline : Road to Moscow Aug 8, 2014 $9.99N/A (N/A)0 .. 20,0000%00:00 (00:00)
80 Woah Dave! Oct 30, 2014 $4.99N/A (N/A)20,000 .. 50,0000%00:00 (00:00)
81 Platypus Jun 2, 2004 $6.99N/A (N/A)100,000 .. 200,0000%00:00 (00:00)
82 Space Hack Nov 15, 2005 $4.99N/A (N/A/63%)200,000 .. 500,0000%00:00 (00:00)
83 Karateka Dec 3, 2012 $3.99N/A (N/A)20,000 .. 50,0000%00:00 (00:00)
84 Sacred Citadel Apr 16, 2013 $9.99N/A (N/A/61%)500,000 .. 1,000,0000%00:00 (00:00)
85 Dogfight 1942 Sep 21, 2012 $9.99N/A (N/A)100,000 .. 200,0000%00:00 (00:00)
86 Hero Academy N/AN/A (N/A/75%)0 .. 20,0000%00:00 (00:00)
87 iBomber Attack Nov 1, 2012 $5.99N/A (N/A)50,000 .. 100,0000%00:00 (00:00)
88 Cannon Fodder 3 Aug 6, 2012 $14.99N/A (N/A/49%)20,000 .. 50,0000%00:00 (00:00)
89 Droid Assault Jan 9, 2013 $9.99N/A (N/A)50,000 .. 100,0000%00:00 (00:00)
90 Rune Classic Nov 18, 2001 $9.99N/A (N/A)100,000 .. 200,0000%00:00 (00:00)
91 Foreign Legion: Multi Massacre Jul 9, 2012 $5.99N/A (N/A)50,000 .. 100,0000%00:00 (00:00)
92 Alien Shooter 2 Conscription May 18, 2012 $9.99N/A (N/A)100,000 .. 200,0000%00:00 (00:00)
93 Painkiller: Recurring Evil Feb 29, 2012 $9.99N/A (N/A/38%)100,000 .. 200,0000%00:00 (00:00)
94 Primal Fears Jan 8, 2013 $9.99N/A (N/A)50,000 .. 100,0000%00:00 (00:00)
95 Cubemen Mar 16, 2012 $3.99N/A (N/A/74%)100,000 .. 200,0000%00:00 (00:00)
96 Galactic Civilizations I: Ultimate Edition Aug 14, 2012 $9.99N/A (N/A/83%)200,000 .. 500,0000%00:00 (00:00)
97 Noitu Love 2: Devolution Apr 23, 2012 $4.99N/A (N/A/80%)50,000 .. 100,0000%00:00 (00:00)
98 Intrusion 2 Sep 11, 2012 $9.99N/A (N/A/80%)200,000 .. 500,0000%00:00 (00:00)
99 Arena Wars 2 Oct 12, 2012 $3.99N/A (N/A)50,000 .. 100,0000%00:00 (00:00)
100 Heretic: Shadow of the Serpent Riders Aug 3, 2007 $4.99N/A (N/A)200,000 .. 500,0000%00:00 (00:00)
101 Unreal 2: The Awakening Feb 3, 2003 $14.99N/A (N/A/75%)200,000 .. 500,0000%00:00 (00:00)
102 Alpha Prime Nov 7, 2007 $4.99N/A (N/A/59%)200,000 .. 500,0000%00:00 (00:00)
103 Tom Clancy's Rainbow Six Lockdown Feb 14, 2006 $9.99N/A (N/A/59%)50,000 .. 100,0000%00:00 (00:00)
104 Call of Duty: United Offensive Sep 15, 2004 $19.99N/A (N/A/87%)200,000 .. 500,0000%00:00 (00:00)
105 Insecticide Part 1 Jun 27, 2008 $0.99N/A (N/A/65%)100,000 .. 200,0000%00:00 (00:00)
106 Painkiller Overdose Oct 30, 2007 $4.99N/A (N/A/65%)200,000 .. 500,0000%00:00 (00:00)
107 Watchmen: The End is Nigh Mar 4, 2009 $4.99N/A (N/A/61%)20,000 .. 50,0000%00:00 (00:00)
108 Full Spectrum Warrior Sep 21, 2004 $9.99N/A (N/A/80%)100,000 .. 200,0000%00:00 (00:00)
109 Deathmatch Classic Jun 1, 2001 $4.99N/A (N/A)5,000,000 .. 10,000,0000%00:00 (00:00)
110 Commandos: Beyond the Call of Duty Apr 7, 1999 $4.99N/A (N/A)500,000 .. 1,000,0000%00:00 (00:00)
111 Half-Life Deathmatch: Source May 1, 2006 $9.99N/A (N/A)10,000,000 .. 20,000,0000%00:00 (00:00)
112 Two Worlds II Castle Defense Jun 14, 2011 $9.99N/A (N/A)200,000 .. 500,0000%00:00 (00:00)
113 QUAKE III: Team Arena Dec 19, 2000 $14.99N/A (N/A/69%)200,000 .. 500,0000%00:00 (00:00)
114 QUAKE Mission Pack 2: Dissolution of Eternity Aug 3, 2007 $2.99N/A (N/A)200,000 .. 500,0000%00:00 (00:00)
115 HeXen: Deathkings of the Dark Citadel Jan 1, 1996 $4.99N/A (N/A)50,000 .. 100,0000%00:00 (00:00)
116 Grand Theft Auto 2 Oct 25, 1999 N/AN/A (N/A)500,000 .. 1,000,0000%00:00 (00:00)
117 NAM Jul 31, 1998 $6.99N/A (N/A)50,000 .. 100,0000%00:00 (00:00)
118 Fly in the House Mar 6, 2015 $9.99N/A (N/A)20,000 .. 50,0000%00:00 (00:00)
119 Neocolonialism Nov 25, 2014 $2.99N/A (N/A)0 .. 20,0000%00:00 (00:00)
120 Rad Rodgers: World One Dec 1, 2016 $19.99N/A (N/A/72%)0 .. 20,0000%00:00 (00:00)
121 Down To One Jan 7, 2016 $0.99N/A (N/A)100,000 .. 200,0000%00:00 (00:00)
122 STAR WARS - X-Wing Special Edition Jan 1, 1994 $9.99N/A (N/A)200,000 .. 500,0000%00:00 (00:00)
123 Raptor: Call of The Shadows - 2015 Edition Feb 13, 2015 $4.99N/A (N/A)20,000 .. 50,0000%00:00 (00:00)
124 Stalingrad Apr 5, 2005 $4.99N/A (N/A)20,000 .. 50,0000%00:00 (00:00)
125 Dead Island Retro Revenge May 31, 2016 $4.99N/A (N/A)100,000 .. 200,0000%00:00 (00:00)
126 Raiden IV: OverKill Sep 3, 2015 $14.99N/A (N/A)50,000 .. 100,0000%00:00 (00:00)
127 TEMBO THE BADASS ELEPHANT Jul 21, 2015 $14.99N/A (N/A)20,000 .. 50,0000%00:00 (00:00)
128 Gemini: Heroes Reborn Jan 18, 2016 $4.99N/A (N/A/54%)50,000 .. 100,0000%00:00 (00:00)
129 BiT Evolution Jun 9, 2015 $9.99N/A (N/A)50,000 .. 100,0000%00:00 (00:00)
130 Smugglers 5: Invasion Oct 16, 2014 $9.99N/A (N/A)0 .. 20,0000%00:00 (00:00)
131 Total Extreme Wrestling 2010 Mar 19, 2015 $14.99N/A (N/A)0 .. 20,0000%00:00 (00:00)
132 Command HQ Jan 1, 1990 $6.99N/A (N/A)0 .. 20,0000%00:00 (00:00)
133 Bierzerkers Feb 25, 2016 $4.99N/A (N/A)200,000 .. 500,0000%00:00 (00:00)
134 The Chaos Engine Aug 29, 2013 $9.99N/A (N/A/40%)50,000 .. 100,0000%00:00 (00:00)
135 Tomb Raider VI: The Angel of Darkness Nov 28, 2012 $6.99N/A (N/A)500,000 .. 1,000,0000%00:00 (00:00)
136 Blood Omen 2: Legacy of Kain Mar 29, 2002 $6.99N/A (N/A)200,000 .. 500,0006.25%00:03 (00:01)
137 POSTAL Nov 14, 1997 $1.99N/A (N/A/56%)200,000 .. 500,0000%00:00 (00:00)
138 Daikatana May 23, 2000 $6.99N/A (N/A)200,000 .. 500,0000%00:00 (00:00)
139 Thunder Wolves May 15, 2013 $1.99N/A (N/A/69%)100,000 .. 200,0000%00:00 (00:00)
140 Strike Vector Jan 28, 2014 $11.99N/A (N/A/73%)100,000 .. 200,0000%00:00 (00:00)
141 Another World – 20th Anniversary Edition Apr 4, 2013 $9.99N/A (N/A)100,000 .. 200,0000%00:00 (00:00)
142 NiGHTS Into Dreams Dec 17, 2012 $7.99N/A (N/A)200,000 .. 500,0000%00:00 (00:00)
143 Strike Suit Infinity Apr 30, 2013 $6.99N/A (N/A/66%)200,000 .. 500,0000%00:00 (00:00)
144 Miner Wars 2081 Nov 28, 2012 $4.99N/A (N/A/52%)50,000 .. 100,0000%00:00 (00:00)
145 UFO: Afterlight Feb 8, 2007 $6.99N/A (N/A/71%)200,000 .. 500,0000%00:00 (00:00)
146 Legacy of Kain: Defiance Dec 17, 2003 $6.99N/A (N/A/70%)200,000 .. 500,0000%00:00 (00:00)
147 The Apogee Throwback Pack Jul 1, 2013 $9.99N/A (N/A)200,000 .. 500,0000%00:00 (00:00)
148 Legacy of Kain: Soul Reaver 2 Nov 20, 2001 $6.99N/A (N/A/77%)200,000 .. 500,0000%00:00 (00:00)
149 Vector Thrust Jul 2, 2015 $24.99N/A (N/A/57%)100,000 .. 200,0000%00:00 (00:00)
150 Tomb Raider V: Chronicles Nov 28, 2012 $6.99N/A (N/A)500,000 .. 1,000,0000%00:00 (00:00)
151 Secret Agent Feb 1, 1992 $4.99N/A (N/A)20,000 .. 50,0000%00:00 (00:00)
152 TWINKLE STAR SPRITES May 26, 2016 $7.99N/A (N/A)20,000 .. 50,0000%00:00 (00:00)
153 Raptor: Call of the Shadows (1994 Classic Edition) Apr 1, 1994 $4.99N/A (N/A)0 .. 20,0000%00:00 (00:00)
154 Wyrmsun May 22, 2015 FreeN/A (N/A)20,000 .. 50,0000%00:00 (00:00)
155 Rise of the Triad: Dark War Dec 21, 1994 $6.99N/A (N/A)50,000 .. 100,0000%00:00 (00:00)
156 Air Brawl Jun 2, 2015 FreeN/A (N/A)100,000 .. 200,0000%00:00 (00:00)
157 World War I Jun 17, 2005 $4.99N/A (N/A)50,000 .. 100,0000%00:00 (00:00)
158 Cruel Arena Aug 18, 2015 $0.99N/A (N/A)200,000 .. 500,0000%00:00 (00:00)
159 STAR WARS - X-Wing Alliance Mar 28, 1999 $9.99N/A (N/A)200,000 .. 500,0000%00:00 (00:00)
160 Monster Bash Apr 9, 1993 $4.99N/A (N/A)50,000 .. 100,0000%00:00 (00:00)
161 STAR WARS X-Wing vs TIE Fighter - Balance of Power Campaigns Apr 17, 1997 $9.99N/A (N/A)200,000 .. 500,0000%00:00 (00:00)
162 Crystal Caves Oct 23, 1991 $4.99N/A (N/A)0 .. 20,0000%00:00 (00:00)
163 Spermination Apr 29, 2015 $2.99N/A (N/A)20,000 .. 50,0000%00:00 (00:00)
164 Alien Carnage / Halloween Harry Nov 4, 1994 N/AN/A (N/A)50,000 .. 100,0000%00:00 (00:00)
165 METAL SLUG 2 Apr 14, 2016 $6.99N/A (N/A)20,000 .. 50,0000%00:00 (00:00)
166 Hocus Pocus Jun 1, 1994 $4.99N/A (N/A)0 .. 20,0000%00:00 (00:00)
167 SHOCK TROOPERS May 18, 2016 $7.99N/A (N/A)20,000 .. 50,0000%00:00 (00:00)
168 Heli Heroes Jan 30, 2002 $4.99N/A (N/A)100,000 .. 200,0000%00:00 (00:00)
169 Earth 2140 Nov 15, 2013 $4.99N/A (N/A)200,000 .. 500,0001.35%01:57 (00:39)
170 Void Destroyer Jan 20, 2015 $9.99N/A (N/A)50,000 .. 100,0000%00:00 (00:00)
171 Earth 2150 Trilogy May 20, 2000 $6.99N/A (N/A/78%)100,000 .. 200,0000%00:00 (00:00)
172 Marc Eckō's Getting Up: Contents Under Pressure Feb 14, 2006 $14.99N/A (N/A/69%)100,000 .. 200,0000%00:00 (00:00)
173 World War III: Black Gold Oct 16, 2001 $4.99N/A (N/A/71%)200,000 .. 500,0000%00:00 (00:00)
174 Desperados: Wanted Dead or Alive Jul 23, 2001 $4.99N/A (N/A/78%)100,000 .. 200,0000%00:00 (00:00)
175 World War II: Panzer Claws Jan 14, 2004 $4.99N/A (N/A/61%)100,000 .. 200,0000%00:00 (00:00)
176 Huntsman: The Orphanage (Halloween Edition) Sep 13, 2013 $8.99N/A (N/A)100,000 .. 200,0000%00:00 (00:00)
177 Ground Control Anthology May 31, 2000 $4.99N/A (N/A/86%)0 .. 20,0000%00:00 (00:00)
178 Portal 2 Sixense Perceptual Pack Sep 20, 2013 N/AN/A (N/A)1,000,000 .. 2,000,0000%00:00 (00:00)
179 Ground Control II: Operation Exodus Jun 18, 2004 $4.99N/A (N/A/80%)20,000 .. 50,0000%00:00 (00:00)
180 Marlow Briggs and the Mask of Death Sep 20, 2013 $4.99N/A (N/A)100,000 .. 200,0000%00:00 (00:00)
181 Blast Em! Jan 22, 2014 $99.99N/A (N/A)0 .. 20,0000%00:00 (00:00)
182 Hive Nov 15, 2013 $9.99N/A (N/A)100,000 .. 200,0000%00:00 (00:00)
183 Ring Runner: Flight of the Sages Jul 9, 2013 $4.99N/A (N/A/75%)100,000 .. 200,0000%00:00 (00:00)
184 Shadow Man Mar 9, 1999 $4.99N/A (N/A)50,000 .. 100,0000%00:00 (00:00)
185 Theatre of War Apr 19, 2007 $3.99N/A (N/A/66%)100,000 .. 200,0000%00:00 (00:00)
186 Dwarfs!? May 4, 2011 $9.99N/A (N/A)200,000 .. 500,0000%00:00 (00:00)
187 Real Warfare 1242 Jun 11, 2010 $3.99N/A (N/A)20,000 .. 50,0000%00:00 (00:00)
188 AquaNox Nov 30, 2001 $4.99N/A (N/A/67%)100,000 .. 200,0000%00:00 (00:00)
189 Reign: Conflict of Nations Jun 30, 2010 $3.99N/A (N/A/60%)50,000 .. 100,0000%00:00 (00:00)
190 AquaNox 2: Revelation Aug 19, 2003 $4.99N/A (N/A/59%)50,000 .. 100,0000%00:00 (00:00)
191 Future Wars Apr 7, 2010 $4.99N/A (N/A)50,000 .. 100,0000%00:00 (00:00)
192 Victoria I Complete Aug 20, 2010 $9.99N/A (N/A)100,000 .. 200,0000%00:00 (00:00)
193 Bionic Commando Jul 28, 2009 $9.99N/A (N/A/69%)200,000 .. 500,0000%00:00 (00:00)
194 Dark Void Jan 19, 2010 $9.99N/A (N/A/57%)50,000 .. 100,0000%00:00 (00:00)
195 Bionic Commando: Rearmed Aug 14, 2008 $9.99N/A (N/A/86%)200,000 .. 500,0000%00:00 (00:00)
196 Dark Void Zero Apr 12, 2010 $4.99N/A (N/A)20,000 .. 50,0000%00:00 (00:00)
197 Dark Sector Mar 23, 2009 $9.99N/A (N/A/66%)50,000 .. 100,0000%00:00 (00:00)
198 NecroVisioN: Lost Company Feb 19, 2010 $6.99N/A (N/A)100,000 .. 200,0000%00:00 (00:00)
199 Zombie Shooter 2 Sep 23, 2009 $9.99N/A (N/A)100,000 .. 200,0000%00:00 (00:00)
200 Star Wolves 2 Mar 2, 2010 $3.99N/A (N/A)50,000 .. 100,0000%00:00 (00:00)
201 SEGA Mega Drive and Genesis Classics Jun 1, 2010 $29.99N/A (N/A)500,000 .. 1,000,0000%00:00 (00:00)
202 ARCADE GAME SERIES: PAC-MAN Apr 19, 2016 $3.99N/A (N/A)50,000 .. 100,0000%00:00 (00:00)
203 SHOWTIME 2073 Feb 12, 2016 $1.99N/A (N/A)20,000 .. 50,0000%00:00 (00:00)
204 Little Big Adventure - Enhanced Edition Oct 14, 1994 $5.99N/A (N/A)0 .. 20,0000%00:00 (00:00)
205 Codename: Panzers, Phase One Jun 16, 2004 $14.99N/A (N/A/81%)20,000 .. 50,0000%00:00 (00:00)
206 Spheroid Aug 29, 2015 $1.99N/A (N/A)20,000 .. 50,0000%00:00 (00:00)
207 Dinocide Jan 21, 2016 $9.99N/A (N/A/51%)50,000 .. 100,0000%00:00 (00:00)
208 ARCADE GAME SERIES: DIG DUG Apr 19, 2016 $3.99N/A (N/A)100,000 .. 200,0000%00:00 (00:00)
209 Crown and Council Jan 27, 2017 FreeN/A (N/A)100,000 .. 200,0000%00:00 (00:00)
210 ARCADE GAME SERIES: GALAGA Apr 19, 2016 $3.99N/A (N/A)100,000 .. 200,0000%00:00 (00:00)
211 Glass Wing Jun 24, 2015 FreeN/A (N/A)50,000 .. 100,0000%00:00 (00:00)
212 Zero Reflex : Black Eye Edition Nov 5, 2015 $3.99N/A (N/A)20,000 .. 50,0000%00:00 (00:00)
213 The Ship: Remasted Oct 31, 2016 $9.99N/A (N/A)100,000 .. 200,0000%00:00 (00:00)
214 Guardians of Orion (Phase 1) Dec 1, 2015 $0.99N/A (N/A)200,000 .. 500,0000%00:00 (00:00)
215 Zanzarah: The Hidden Portal Aug 20, 2015 $7.99N/A (N/A)100,000 .. 200,0000%00:00 (00:00)
216 Gunjack Apr 5, 2016 $4.99N/A (N/A)0 .. 20,0000%00:00 (00:00)
217 Call of Tomsk-7 Aug 10, 2015 $0.99N/A (N/A)20,000 .. 50,0000%00:00 (00:00)
218 Master of Orion 3 Feb 25, 2003 $9.99N/A (N/A/64%)100,000 .. 200,0000%00:00 (00:00)
219 Etherlords Nov 12, 2001 $4.99N/A (N/A/77%)100,000 .. 200,0000%00:00 (00:00)
220 Desert Thunder Nov 19, 2003 $2.99N/A (N/A)20,000 .. 50,0000%00:00 (00:00)
221 Sniper Art of Victory Oct 16, 2008 $2.99N/A (N/A)200,000 .. 500,0000%00:00 (00:00)
222 Marine Sharpshooter II: Jungle Warfare Jun 22, 2004 $2.99N/A (N/A/52%)50,000 .. 100,0000%00:00 (00:00)
223 Praetorians Mar 10, 2003 $4.99N/A (N/A/78%)100,000 .. 200,0000%00:00 (00:00)
224 CT Special Forces: Fire for Effect Mar 24, 2005 $2.99N/A (N/A)50,000 .. 100,0000%00:00 (00:00)
225 JUDGEMENT SILVERSWORD - Resurrection - Sep 18, 2015 $4.99N/A (N/A)0 .. 20,0000%00:00 (00:00)
226 Litil Divil Jan 1, 1993 $2.99N/A (N/A)50,000 .. 100,0000%00:00 (00:00)
227 GIGANTIC ARMY Mar 6, 2014 $2.99N/A (N/A)50,000 .. 100,0000%00:00 (00:00)
228 BlackSoul: Extended Edition Feb 26, 2014 $0.99N/A (N/A)200,000 .. 500,0000%00:00 (00:00)
229 Eterium Apr 15, 2014 $4.99N/A (N/A)100,000 .. 200,0000%00:00 (00:00)
230 MURI Dec 6, 2013 $4.99N/A (N/A)20,000 .. 50,0000%00:00 (00:00)
231 BloodRayne Betrayal Apr 30, 2014 $9.99N/A (N/A)50,000 .. 100,0000%00:00 (00:00)
232 Hyper Fighters Jun 14, 2011 $2.99N/A (N/A)100,000 .. 200,0000%00:00 (00:00)
233 Explodemon Nov 3, 2011 $8.99N/A (N/A)20,000 .. 50,0000%00:00 (00:00)
234 Aces Wild: Manic Brawling Action! Aug 8, 2013 $9.99N/A (N/A)50,000 .. 100,0000%00:00 (00:00)
235 Jagged Alliance 1: Gold Edition Jun 2, 1994 $9.99N/A (N/A)20,000 .. 50,0000%00:00 (00:00)
236 Archon Classic Nov 2, 2010 $9.99N/A (N/A)20,000 .. 50,0000%00:00 (00:00)
237 Plain Sight Apr 5, 2010 $4.99N/A (N/A/76%)100,000 .. 200,0000%00:00 (00:00)
238 Painkiller Redemption Feb 25, 2011 $4.99N/A (N/A/43%)200,000 .. 500,0000%00:00 (00:00)
239 Burn Zombie Burn! Aug 12, 2010 $9.99N/A (N/A/72%)50,000 .. 100,0000%00:00 (00:00)
240 Worms Oct 30, 1995 $7.99N/A (N/A)100,000 .. 200,0000%00:00 (00:00)
241 Flotilla Mar 29, 2010 $4.99N/A (N/A/72%)100,000 .. 200,0000%00:00 (00:00)
242 Guardians of Graxia Nov 1, 2010 N/AN/A (N/A)50,000 .. 100,0000%00:00 (00:00)
243 NyxQuest: Kindred Spirits Sep 27, 2010 $2.99N/A (N/A)20,000 .. 50,0000%00:00 (00:00)
244 Wasteland Angel Sep 1, 2011 $9.99N/A (N/A)100,000 .. 200,0000%00:00 (00:00)
245 Who's That Flying?! Jan 31, 2011 $5.99N/A (N/A/76%)20,000 .. 50,0000%00:00 (00:00)
246 Robin Hood: The Legend of Sherwood Nov 1, 2002 $7.99N/A (N/A/80%)100,000 .. 200,0000%00:00 (00:00)
247 ProtoGalaxy Oct 6, 2010 N/AN/A (N/A)50,000 .. 100,0000%00:00 (00:00)
248 Ironclads: American Civil War Jan 8, 2009 $0.99N/A (N/A)20,000 .. 50,0000%00:00 (00:00)
249 Age of Wonders II: The Wizard's Throne Oct 2010 $9.99N/A (N/A/86%)50,000 .. 100,0000%00:00 (00:00)
250 Ironclads: Anglo Russian War 1866 Jun 21, 2011 $0.99N/A (N/A)20,000 .. 50,0000%00:00 (00:00)
251 Theatre of War 3: Korea Mar 24, 2011 $6.99N/A (N/A/49%)50,000 .. 100,0000%00:00 (00:00)
252 Pirates of Black Cove Aug 2, 2011 $9.99N/A (N/A/56%)50,000 .. 100,0000%00:00 (00:00)

Tags over time:

Access restricted.

This feature is only available to users with special access rights. Sorry.

If you want to proceed, you need to register or log in first and then back Steam Spy on Patreon. Look for Indie or Pro pledge.

Don't forget to use the same email as on Steam Spy!

Owners of this game also own:

Access restricted.

This feature is only available to users with special access rights. Sorry.

If you want to proceed, you need to register or log in first and then back Steam Spy on Patreon. Look for Indie or Pro pledge.

Don't forget to use the same email as on Steam Spy!

Playtime distribution:

Access restricted.

This feature is only available to users with special access rights. Sorry.

If you want to proceed, you need to register or log in first and then back Steam Spy on Patreon. Look for Indie or Pro pledge.

Don't forget to use the same email as on Steam Spy!

Playtime (2 weeks):

Access restricted.

This feature is only available to users with special access rights. Sorry.

If you want to proceed, you need to register or log in first and then back Steam Spy on Patreon. Look for Indie or Pro pledge.

Don't forget to use the same email as on Steam Spy!

User reviews:

Login required.

Please register or log in to see this information.